createdAt,value
2018-09-03T00:00:54.017Z,3.20
2018-09-03T00:03:22.441Z,3.57
2018-09-03T00:05:50.874Z,3.50
2018-09-03T00:08:19.325Z,3.03
2018-09-03T00:10:47.775Z,3.30
2018-09-03T00:13:16.233Z,3.70
2018-09-03T00:15:44.684Z,3.73
2018-09-03T00:18:13.173Z,3.17
2018-09-03T00:20:41.599Z,4.00
2018-09-03T00:23:10.053Z,3.83
2018-09-03T00:25:38.501Z,3.93
2018-09-03T00:28:06.952Z,4.00
2018-09-03T00:30:35.410Z,4.03
2018-09-03T00:33:09.289Z,3.87
2018-09-03T00:35:43.048Z,4.17
2018-09-03T00:38:16.865Z,4.07
2018-09-03T00:41:49.489Z,3.57
2018-09-03T00:44:23.257Z,3.20
2018-09-03T00:46:56.997Z,3.53
2018-09-03T00:49:25.445Z,3.10
2018-09-03T00:51:53.902Z,3.63
2018-09-03T00:54:22.355Z,3.50
2018-09-03T00:56:50.833Z,4.00
2018-09-03T00:59:19.331Z,3.77
2018-09-03T01:01:47.779Z,4.03
2018-09-03T01:04:16.218Z,3.93
2018-09-03T01:06:44.656Z,3.60
2018-09-03T01:09:13.114Z,3.90
2018-09-03T01:11:41.640Z,3.90
2018-09-03T01:14:10.119Z,4.07
2018-09-03T01:16:38.531Z,3.67
2018-09-03T01:19:06.969Z,3.57
2018-09-03T01:21:35.413Z,3.67
2018-09-03T01:24:04.033Z,3.63
2018-09-03T01:26:32.708Z,4.33
2018-09-03T01:29:01.187Z,3.93
2018-09-03T01:31:29.697Z,3.80
2018-09-03T01:33:58.141Z,3.63
2018-09-03T01:36:26.606Z,4.03
2018-09-03T01:38:55.095Z,3.87
2018-09-03T01:41:23.537Z,3.70
2018-09-03T01:43:51.989Z,3.60
2018-09-03T01:46:20.668Z,3.70
2018-09-03T01:48:49.104Z,4.20
2018-09-03T01:51:17.583Z,3.43
2018-09-03T01:53:46.088Z,3.80
2018-09-03T01:56:14.589Z,3.93
2018-09-03T01:58:43.011Z,4.17
2018-09-03T02:01:11.536Z,3.87
2018-09-03T02:03:40.012Z,3.70
2018-09-03T02:06:09.033Z,4.10
2018-09-03T02:08:37.514Z,3.53
2018-09-03T02:11:06.452Z,4.40
2018-09-03T02:13:35.410Z,3.47
2018-09-03T02:16:04.265Z,3.73
2018-09-03T02:18:33.237Z,3.70
2018-09-03T02:21:01.825Z,3.60
2018-09-03T02:23:30.304Z,4.60
2018-09-03T02:25:58.737Z,4.10
2018-09-03T02:28:27.208Z,4.33
2018-09-03T02:30:55.657Z,3.87
2018-09-03T02:33:24.128Z,4.03
2018-09-03T02:35:52.613Z,3.90
2018-09-03T02:38:21.114Z,4.27
2018-09-03T02:40:49.801Z,4.17
2018-09-03T02:43:18.269Z,4.03
2018-09-03T02:45:46.990Z,3.70
2018-09-03T02:48:15.458Z,4.07
2018-09-03T02:50:43.890Z,4.50
2018-09-03T02:53:12.325Z,4.33
2018-09-03T02:55:40.779Z,4.30
2018-09-03T02:58:09.204Z,4.30
2018-09-03T03:00:37.658Z,4.00
2018-09-03T03:03:06.300Z,4.00
2018-09-03T03:05:34.783Z,4.43
2018-09-03T03:08:03.778Z,4.40
2018-09-03T03:10:32.231Z,4.40
2018-09-03T03:13:00.726Z,4.70
2018-09-03T03:15:29.978Z,4.33
2018-09-03T03:17:59.116Z,4.47
2018-09-03T03:20:27.617Z,5.00
2018-09-03T03:22:56.195Z,4.50
2018-09-03T03:25:26.474Z,4.47
2018-09-03T03:27:55.029Z,4.93
2018-09-03T03:30:23.551Z,5.40
2018-09-03T03:32:52.049Z,4.27
2018-09-03T03:35:20.573Z,4.63
2018-09-03T03:37:49.724Z,4.83
2018-09-03T03:40:19.224Z,4.30
2018-09-03T03:42:47.665Z,4.77
2018-09-03T03:45:16.167Z,5.23
2018-09-03T03:47:44.624Z,4.33
2018-09-03T03:50:13.058Z,5.33
2018-09-03T03:52:41.583Z,4.57
2018-09-03T03:55:10.196Z,4.47
2018-09-03T03:57:38.576Z,4.90
2018-09-03T04:00:07.548Z,4.70
2018-09-03T04:02:36.098Z,4.33
2018-09-03T04:05:04.744Z,5.40
2018-09-03T04:07:33.229Z,5.30
2018-09-03T04:10:01.673Z,5.27
2018-09-03T04:12:30.194Z,5.50
2018-09-03T04:14:58.669Z,4.90
2018-09-03T04:17:27.122Z,5.20
2018-09-03T04:20:01.562Z,4.97
2018-09-03T04:22:30.240Z,5.00
2018-09-03T04:24:58.792Z,4.97
2018-09-03T04:27:27.274Z,4.90
2018-09-03T04:29:55.752Z,4.87
2018-09-03T04:32:24.480Z,5.97
2018-09-03T04:34:52.957Z,5.97
2018-09-03T04:37:21.664Z,6.43
2018-09-03T04:39:50.153Z,5.77
2018-09-03T04:42:18.609Z,5.70
2018-09-03T04:44:47.245Z,4.83
2018-09-03T04:47:15.853Z,5.50
2018-09-03T04:49:44.364Z,5.83
2018-09-03T04:52:12.841Z,5.60
2018-09-03T04:54:41.364Z,5.43
2018-09-03T04:57:09.847Z,6.37
2018-09-03T04:59:38.350Z,6.40
2018-09-03T05:02:07.002Z,6.63
2018-09-03T05:04:37.961Z,6.40
2018-09-03T05:07:06.560Z,6.03
2018-09-03T05:09:38.151Z,5.87
2018-09-03T05:12:06.990Z,6.13
2018-09-03T05:14:35.767Z,6.47
2018-09-03T05:17:04.457Z,5.37
2018-09-03T05:19:32.912Z,6.20
2018-09-03T05:22:01.387Z,6.23
2018-09-03T05:24:29.898Z,6.20
2018-09-03T05:26:58.379Z,6.20
2018-09-03T05:29:26.898Z,7.00
2018-09-03T05:31:55.350Z,7.33
2018-09-03T05:34:23.782Z,6.93
2018-09-03T05:36:52.248Z,7.10
2018-09-03T05:39:20.673Z,6.43
2018-09-03T05:41:49.196Z,7.73
2018-09-03T05:44:17.654Z,6.83
2018-09-03T05:46:46.113Z,7.00
2018-09-03T05:49:14.601Z,6.57
2018-09-03T05:51:43.052Z,6.53
2018-09-03T05:54:11.605Z,9.73
2018-09-03T05:56:40.047Z,7.10
2018-09-03T05:59:08.546Z,7.23
2018-09-03T06:01:37.019Z,6.67
2018-09-03T06:04:06.235Z,7.27
2018-09-03T06:06:35.095Z,6.63
2018-09-03T06:09:04.902Z,6.53
2018-09-03T06:11:33.485Z,7.43
2018-09-03T06:14:02.429Z,7.67
2018-09-03T06:16:31.458Z,7.47
2018-09-03T06:19:01.008Z,7.30
2018-09-03T06:21:29.454Z,7.53
2018-09-03T06:23:58.162Z,7.17
2018-09-03T06:26:26.563Z,7.13
2018-09-03T06:28:55.079Z,7.07
2018-09-03T06:31:23.799Z,7.83
2018-09-03T06:33:52.369Z,7.50
2018-09-03T06:36:20.843Z,7.80
2018-09-03T06:38:49.390Z,7.70
2018-09-03T06:41:17.861Z,7.20
2018-09-03T06:43:46.716Z,6.60
2018-09-03T06:46:15.265Z,7.03
2018-09-03T06:48:43.893Z,7.83
2018-09-03T06:51:12.792Z,7.17
2018-09-03T06:53:41.475Z,7.23
2018-09-03T06:56:10.250Z,7.87
2018-09-03T06:58:38.966Z,7.90
2018-09-03T07:01:07.624Z,7.70
2018-09-03T07:03:36.372Z,7.23
2018-09-03T07:06:05.767Z,7.27
2018-09-03T07:08:37.501Z,6.50
2018-09-03T07:11:06.781Z,6.53
2018-09-03T07:13:35.785Z,7.63
2018-09-03T07:16:05.216Z,7.83
2018-09-03T07:18:34.232Z,7.43
2018-09-03T07:21:03.433Z,7.93
2018-09-03T07:23:32.478Z,7.63
2018-09-03T07:26:01.528Z,7.30
2018-09-03T07:28:30.421Z,7.77
2018-09-03T07:30:59.615Z,7.20
2018-09-03T07:33:28.690Z,7.17
2018-09-03T07:35:57.485Z,6.80
2018-09-03T07:38:26.411Z,7.10
2018-09-03T07:40:55.728Z,7.37
2018-09-03T07:43:24.225Z,7.30
2018-09-03T07:45:52.694Z,6.73
2018-09-03T07:48:21.246Z,7.80
2018-09-03T07:50:49.703Z,7.43
2018-09-03T07:53:18.144Z,7.00
2018-09-03T07:55:46.576Z,7.30
2018-09-03T07:58:15.095Z,7.73
2018-09-03T08:00:43.881Z,7.90
2018-09-03T08:03:12.484Z,7.77
2018-09-03T08:05:40.963Z,7.53
2018-09-03T08:08:09.521Z,7.83
2018-09-03T08:10:38.005Z,7.80
2018-09-03T08:13:06.658Z,8.70
2018-09-03T08:15:35.098Z,9.00
2018-09-03T08:18:03.563Z,9.10
2018-09-03T08:20:32.350Z,8.40
2018-09-03T08:23:00.941Z,8.57
2018-09-03T08:25:29.530Z,8.83
2018-09-03T08:27:58.010Z,8.17
2018-09-03T08:30:26.513Z,8.40
2018-09-03T08:32:55.017Z,8.73
2018-09-03T08:35:23.518Z,9.23
2018-09-03T08:37:52.022Z,8.20
2018-09-03T08:40:21.093Z,8.57
2018-09-03T08:42:49.544Z,9.97
2018-09-03T08:45:18.089Z,9.83
2018-09-03T08:47:46.610Z,10.10
2018-09-03T08:50:15.433Z,9.23
2018-09-03T08:52:43.869Z,9.27
2018-09-03T08:55:12.523Z,8.83
2018-09-03T08:57:41.273Z,8.47
2018-09-03T09:00:09.764Z,9.67
2018-09-03T09:02:38.267Z,9.17
2018-09-03T09:05:06.986Z,8.83
2018-09-03T09:07:35.561Z,9.63
2018-09-03T09:10:04.250Z,9.60
2018-09-03T09:12:32.768Z,10.43
2018-09-03T09:15:01.272Z,9.97
2018-09-03T09:17:30.443Z,10.03
2018-09-03T09:19:59.743Z,9.70
2018-09-03T09:22:28.368Z,9.70
2018-09-03T09:24:57.592Z,10.57
2018-09-03T09:27:26.214Z,11.20
2018-09-03T09:29:54.687Z,10.67
2018-09-03T09:32:23.215Z,10.30
2018-09-03T09:34:51.831Z,11.77
2018-09-03T09:37:20.540Z,10.43
2018-09-03T09:39:49.072Z,11.20
2018-09-03T09:42:17.628Z,11.47
2018-09-03T09:44:46.072Z,11.03
2018-09-03T09:47:16.133Z,9.40
2018-09-03T09:49:44.652Z,11.93
2018-09-03T09:52:13.213Z,10.90
2018-09-03T09:54:41.696Z,10.93
2018-09-03T09:57:10.482Z,10.83
2018-09-03T09:59:38.997Z,10.77
2018-09-03T10:02:07.528Z,10.20
2018-09-03T10:04:36.065Z,11.27
2018-09-03T10:07:04.714Z,10.97
2018-09-03T10:09:33.142Z,11.90
2018-09-03T10:12:01.895Z,10.87
2018-09-03T10:14:30.713Z,9.90
2018-09-03T10:16:59.853Z,11.40
2018-09-03T10:19:29.219Z,10.43
2018-09-03T10:21:57.657Z,10.10
2018-09-03T10:24:26.203Z,8.77
2018-09-03T10:26:54.678Z,9.97
2018-09-03T10:29:23.286Z,9.37
2018-09-03T10:31:51.731Z,9.17
2018-09-03T10:34:20.219Z,8.67
2018-09-03T10:36:48.855Z,9.67
2018-09-03T10:39:17.308Z,8.93
2018-09-03T10:41:45.773Z,8.90
2018-09-03T10:44:14.241Z,8.30
2018-09-03T10:46:42.744Z,8.53
2018-09-03T10:49:11.232Z,8.33
2018-09-03T10:51:39.764Z,8.20
2018-09-03T10:54:08.248Z,8.57
2018-09-03T10:56:36.818Z,8.37
2018-09-03T10:59:05.399Z,8.40
2018-09-03T11:01:34.453Z,8.30
2018-09-03T11:04:02.919Z,8.00
2018-09-03T11:06:32.412Z,8.70
2018-09-03T11:09:00.992Z,8.63
2018-09-03T11:11:29.449Z,8.50
2018-09-03T11:13:58.653Z,9.07
2018-09-03T11:16:27.118Z,6.87
2018-09-03T11:18:55.700Z,8.40
2018-09-03T11:21:24.308Z,8.17
2018-09-03T11:23:52.806Z,8.40
2018-09-03T11:26:21.277Z,8.37
2018-09-03T11:28:49.846Z,9.27
2018-09-03T11:31:18.370Z,8.13
2018-09-03T11:33:47.920Z,8.73
2018-09-03T11:36:17.011Z,9.40
2018-09-03T11:38:45.954Z,9.13
2018-09-03T11:41:14.486Z,9.77
2018-09-03T11:43:43.074Z,9.43
2018-09-03T11:46:11.609Z,9.13
2018-09-03T11:48:40.276Z,9.30
2018-09-03T11:51:08.996Z,9.57
2018-09-03T11:53:37.634Z,9.47
2018-09-03T11:56:06.204Z,9.70
2018-09-03T11:58:34.981Z,9.33
2018-09-03T12:01:03.554Z,9.53
2018-09-03T12:03:32.684Z,10.60
2018-09-03T12:06:01.184Z,9.43
2018-09-03T12:08:29.768Z,9.93
2018-09-03T12:10:58.345Z,11.07
2018-09-03T12:13:27.140Z,9.73
2018-09-03T12:16:11.359Z,9.40
2018-09-03T12:18:41.801Z,11.37
2018-09-03T12:21:11.124Z,10.57
2018-09-03T12:23:40.167Z,10.90
2018-09-03T12:26:09.663Z,11.53
2018-09-03T12:28:39.212Z,10.07
2018-09-03T12:31:08.086Z,12.17
2018-09-03T12:33:36.794Z,10.53
2018-09-03T12:36:06.364Z,12.13
2018-09-03T12:38:35.613Z,11.00
2018-09-03T12:41:05.016Z,12.03
2018-09-03T12:43:34.079Z,11.73
2018-09-03T12:46:04.192Z,11.00
2018-09-03T12:48:33.097Z,12.43
2018-09-03T12:51:02.800Z,12.23
2018-09-03T12:53:31.740Z,11.60
2018-09-03T12:56:00.697Z,12.43
2018-09-03T12:58:29.799Z,11.40
2018-09-03T13:00:58.501Z,11.87
2018-09-03T13:03:27.530Z,12.13
2018-09-03T13:05:56.193Z,12.47
2018-09-03T13:08:25.221Z,11.87
2018-09-03T13:10:53.857Z,12.00
2018-09-03T13:13:22.398Z,11.37
2018-09-03T13:15:51.090Z,13.20
2018-09-03T13:18:19.792Z,11.80
2018-09-03T13:20:48.727Z,13.50
2018-09-03T13:23:17.375Z,11.73
2018-09-03T13:25:46.339Z,13.43
2018-09-03T13:28:15.308Z,11.63
2018-09-03T13:30:43.952Z,12.40
2018-09-03T13:33:12.520Z,12.40
2018-09-03T13:35:41.038Z,13.00
2018-09-03T13:38:11.938Z,11.97
2018-09-03T13:40:40.672Z,11.93
2018-09-03T13:43:09.360Z,13.53
2018-09-03T13:45:38.055Z,13.77
2018-09-03T13:48:06.468Z,13.17
2018-09-03T13:50:35.174Z,14.47
2018-09-03T13:53:03.892Z,13.73
2018-09-03T13:55:32.606Z,14.70
2018-09-03T13:58:01.289Z,14.17
2018-09-03T14:00:30.312Z,14.53
2018-09-03T14:02:58.892Z,14.03
2018-09-03T14:05:27.833Z,15.30
2018-09-03T14:07:56.513Z,14.43
2018-09-03T14:10:32.113Z,16.77
2018-09-03T14:13:00.644Z,15.27
2018-09-03T14:15:29.614Z,16.97
2018-09-03T14:17:58.462Z,16.43
2018-09-03T14:20:27.662Z,16.27
2018-09-03T14:22:56.210Z,18.10
2018-09-03T14:25:24.733Z,19.10
2018-09-03T14:27:53.201Z,18.87
2018-09-03T14:30:21.798Z,18.80
2018-09-03T14:32:50.282Z,17.30
2018-09-03T14:35:18.879Z,18.90
2018-09-03T14:37:47.389Z,18.03
2018-09-03T14:40:17.102Z,20.93
2018-09-03T14:42:46.069Z,18.17
2018-09-03T14:45:14.698Z,17.47
2018-09-03T14:47:43.425Z,17.20
2018-09-03T14:50:12.314Z,17.57
2018-09-03T14:52:40.904Z,18.83
2018-09-03T14:55:09.472Z,16.97
2018-09-03T14:57:38.056Z,17.13
2018-09-03T15:00:07.849Z,16.77
2018-09-03T15:02:36.693Z,17.67
2018-09-03T15:05:05.296Z,17.23
2018-09-03T15:07:33.976Z,17.03
2018-09-03T15:10:02.657Z,17.77
2018-09-03T15:12:31.416Z,16.00
2018-09-03T15:15:00.043Z,17.07
2018-09-03T15:17:28.741Z,15.73
2018-09-03T15:19:57.517Z,15.73
2018-09-03T15:22:26.368Z,16.80
2018-09-03T15:24:54.911Z,16.40
2018-09-03T15:27:23.605Z,16.77
2018-09-03T15:29:52.394Z,16.90
2018-09-03T15:32:21.030Z,15.63
2018-09-03T15:34:49.573Z,15.87
2018-09-03T15:37:18.712Z,15.97
2018-09-03T15:39:47.401Z,16.70
2018-09-03T15:42:16.115Z,16.13
2018-09-03T15:44:44.817Z,15.80
2018-09-03T15:47:13.693Z,17.47
2018-09-03T15:49:42.272Z,16.07
2018-09-03T15:52:10.758Z,15.27
2018-09-03T15:54:41.285Z,16.70
2018-09-03T15:57:09.836Z,16.33
2018-09-03T15:59:38.404Z,17.03
2018-09-03T16:02:06.926Z,15.63
2018-09-03T16:04:35.517Z,15.27
2018-09-03T16:07:04.094Z,16.07
2018-09-03T16:09:32.687Z,15.10
2018-09-03T16:12:01.206Z,17.77
2018-09-03T16:14:29.795Z,16.30
2018-09-03T16:16:58.429Z,16.67
2018-09-03T16:19:27.188Z,17.23
2018-09-03T16:21:55.907Z,17.53
2018-09-03T16:24:24.636Z,17.07
2018-09-03T16:26:53.177Z,16.03
2018-09-03T16:29:21.707Z,17.60
2018-09-03T16:31:50.276Z,17.67
2018-09-03T16:34:18.820Z,18.63
2018-09-03T16:36:47.365Z,19.20
2018-09-03T16:39:15.912Z,19.07
2018-09-03T16:41:44.594Z,18.93
2018-09-03T16:44:13.066Z,16.97
2018-09-03T16:46:41.617Z,18.27
2018-09-03T16:49:10.285Z,18.60
2018-09-03T16:51:39.032Z,19.27
2018-09-03T16:54:07.581Z,17.60
2018-09-03T16:56:36.171Z,18.77
2018-09-03T16:59:04.835Z,19.33
2018-09-03T17:01:33.564Z,18.57
2018-09-03T17:04:02.123Z,20.03
2018-09-03T17:06:30.601Z,18.30
2018-09-03T17:08:59.500Z,18.37
2018-09-03T17:11:29.553Z,18.87
2018-09-03T17:13:58.110Z,18.60
2018-09-03T17:16:26.635Z,18.80
2018-09-03T17:18:55.220Z,18.13
2018-09-03T17:21:24.187Z,19.43
2018-09-03T17:23:52.737Z,18.23
2018-09-03T17:26:21.431Z,18.37
2018-09-03T17:28:50.209Z,18.90
2018-09-03T17:31:18.766Z,18.40
2018-09-03T17:33:47.343Z,19.73
2018-09-03T17:36:15.838Z,19.03
2018-09-03T17:38:51.009Z,19.53
2018-09-03T17:41:19.682Z,18.67
2018-09-03T17:43:48.347Z,19.57
2018-09-03T17:46:17.125Z,17.33
2018-09-03T17:48:47.340Z,17.60
2018-09-03T17:51:15.959Z,19.53
2018-09-03T17:53:44.570Z,17.37
2018-09-03T17:56:13.067Z,17.73
2018-09-03T17:58:41.774Z,18.80
2018-09-03T18:01:10.253Z,18.77
2018-09-03T18:03:39.283Z,20.60
2018-09-03T18:06:07.857Z,19.63
2018-09-03T18:08:36.545Z,21.07
2018-09-03T18:11:05.146Z,19.80
2018-09-03T18:13:33.725Z,18.83
2018-09-03T18:16:02.231Z,21.23
2018-09-03T18:18:30.737Z,19.30
2018-09-03T18:20:59.265Z,19.87
2018-09-03T18:23:27.788Z,20.37
2018-09-03T18:25:56.329Z,19.77
2018-09-03T18:28:24.965Z,19.97
2018-09-03T18:30:53.551Z,19.93
2018-09-03T18:33:22.045Z,20.57
2018-09-03T18:35:50.684Z,21.13
2018-09-03T18:38:19.174Z,20.13
2018-09-03T18:40:47.789Z,21.57
2018-09-03T18:43:16.296Z,20.13
2018-09-03T18:45:44.923Z,22.33
2018-09-03T18:48:13.707Z,22.23
2018-09-03T18:50:42.578Z,23.07
2018-09-03T18:53:11.208Z,22.10
2018-09-03T18:55:39.890Z,23.47
2018-09-03T18:58:08.956Z,23.50
2018-09-03T19:00:37.850Z,22.70
2018-09-03T19:03:06.831Z,23.27
2018-09-03T19:05:36.034Z,30.77
2018-09-03T19:08:04.922Z,22.20
2018-09-03T19:10:33.810Z,23.83
2018-09-03T19:13:03.111Z,22.27
2018-09-03T19:15:32.217Z,23.13
2018-09-03T19:18:00.728Z,23.03
2018-09-03T19:20:29.887Z,23.20
2018-09-03T19:22:58.453Z,23.63
2018-09-03T19:25:27.462Z,24.03
2018-09-03T19:27:56.558Z,22.27
2018-09-03T19:30:25.554Z,24.43
2018-09-03T19:32:54.167Z,22.70
2018-09-03T19:35:23.081Z,22.97
2018-09-03T19:37:51.926Z,22.67
2018-09-03T19:40:20.464Z,23.40
2018-09-03T19:42:48.999Z,24.53
2018-09-03T19:45:17.546Z,22.97
2018-09-03T19:47:46.019Z,24.40
2018-09-03T19:50:14.611Z,28.47
2018-09-03T19:52:43.135Z,30.30
2018-09-03T19:55:11.805Z,24.50
2018-09-03T19:57:40.830Z,24.87
2018-09-03T20:00:09.386Z,24.33
2018-09-03T20:02:37.961Z,23.03
2018-09-03T20:05:06.988Z,22.10
2018-09-03T20:07:35.822Z,23.97
2018-09-03T20:10:04.540Z,25.00
2018-09-03T20:12:33.202Z,21.10
2018-09-03T20:15:01.999Z,23.00
2018-09-03T20:17:30.533Z,22.70
2018-09-03T20:19:59.004Z,23.13
2018-09-03T20:22:27.626Z,23.73
2018-09-03T20:24:56.126Z,22.80
2018-09-03T20:27:24.763Z,23.97
2018-09-03T20:29:53.271Z,23.93
2018-09-03T20:32:21.847Z,24.87
2018-09-03T20:34:50.363Z,24.17
2018-09-03T20:37:19.200Z,23.73
2018-09-03T20:39:47.812Z,23.87
2018-09-03T20:42:16.637Z,22.53
2018-09-03T20:44:45.864Z,24.00
2018-09-03T20:47:14.372Z,21.87
2018-09-03T20:49:42.965Z,22.30
2018-09-03T20:52:11.513Z,23.00
2018-09-03T20:54:40.092Z,22.73
2018-09-03T20:57:08.942Z,22.97
2018-09-03T20:59:37.614Z,21.93
2018-09-03T21:02:06.254Z,23.43
2018-09-03T21:04:34.939Z,23.40
2018-09-03T21:07:03.509Z,23.60
2018-09-03T21:09:32.106Z,24.70
2018-09-03T21:12:00.872Z,23.90
2018-09-03T21:14:29.474Z,23.43
2018-09-03T21:16:58.117Z,24.63
2018-09-03T21:19:26.665Z,22.53
2018-09-03T21:21:55.320Z,22.33
2018-09-03T21:24:23.907Z,22.13
2018-09-03T21:26:52.487Z,25.13
2018-09-03T21:29:21.074Z,24.07
2018-09-03T21:31:49.571Z,24.83
2018-09-03T21:34:18.204Z,25.53
2018-09-03T21:36:46.750Z,26.87
2018-09-03T21:39:15.636Z,27.40
2018-09-03T21:41:44.089Z,29.37
2018-09-03T21:44:12.794Z,30.83
2018-09-03T21:46:41.599Z,29.73
2018-09-03T21:49:10.180Z,31.13
2018-09-03T21:51:38.811Z,31.60
2018-09-03T21:54:07.351Z,32.63
2018-09-03T21:56:36.182Z,33.37
2018-09-03T21:59:04.941Z,33.80
2018-09-03T22:01:33.649Z,34.43
2018-09-03T22:04:02.161Z,34.23
2018-09-03T22:06:31.971Z,34.00
2018-09-03T22:09:01.481Z,32.10
2018-09-03T22:11:30.493Z,33.40
2018-09-03T22:13:59.242Z,33.63
2018-09-03T22:16:27.885Z,34.53
2018-09-03T22:18:56.364Z,33.33
2018-09-03T22:21:24.961Z,33.57
2018-09-03T22:23:53.457Z,32.90
2018-09-03T22:26:22.242Z,32.90
2018-09-03T22:28:51.389Z,32.10
2018-09-03T22:31:20.021Z,30.13
2018-09-03T22:33:48.702Z,34.30
2018-09-03T22:36:17.237Z,32.37
2018-09-03T22:38:45.747Z,35.10
2018-09-03T22:41:14.285Z,36.43
2018-09-03T22:43:42.958Z,34.03
2018-09-03T22:46:11.534Z,36.10
2018-09-03T22:48:41.158Z,36.83
2018-09-03T22:51:09.737Z,37.47
2018-09-03T22:53:38.353Z,36.93
2018-09-03T22:56:06.975Z,37.53
2018-09-03T22:58:35.719Z,37.50
2018-09-03T23:01:04.530Z,36.60
2018-09-03T23:03:33.374Z,38.50
2018-09-03T23:06:02.263Z,38.30
2018-09-03T23:08:31.074Z,38.00
2018-09-03T23:10:59.899Z,37.83
2018-09-03T23:13:28.753Z,38.57
2018-09-03T23:15:57.343Z,37.83
2018-09-03T23:18:26.077Z,37.73
2018-09-03T23:20:54.654Z,39.83
2018-09-03T23:23:23.230Z,38.23
2018-09-03T23:25:51.837Z,38.60
2018-09-03T23:28:20.365Z,40.43
2018-09-03T23:30:48.903Z,41.03
2018-09-03T23:33:17.361Z,41.57
2018-09-03T23:35:45.836Z,40.53
2018-09-03T23:38:15.026Z,39.57
2018-09-03T23:40:43.568Z,41.63
2018-09-03T23:43:12.102Z,42.03
2018-09-03T23:45:40.601Z,43.37
2018-09-03T23:48:09.133Z,42.43
2018-09-03T23:50:37.708Z,43.03
2018-09-03T23:53:06.404Z,43.40
2018-09-03T23:55:35.197Z,39.33
2018-09-03T23:58:03.778Z,43.30
